sensor_id;sensor_type;location;lat;lon;timestamp;P1;durP1;ratioP1;P2;durP2;ratioP2
32323;SDS011;25666;44.350;9.222;2022-07-04T00:00:04;7.97;;;5.30;;
32323;SDS011;25666;44.350;9.222;2022-07-04T00:02:31;13.02;;;5.88;;
32323;SDS011;25666;44.350;9.222;2022-07-04T00:04:57;10.95;;;6.22;;
32323;SDS011;25666;44.350;9.222;2022-07-04T00:07:23;8.55;;;5.63;;
32323;SDS011;25666;44.350;9.222;2022-07-04T00:09:48;10.73;;;4.72;;
32323;SDS011;25666;44.350;9.222;2022-07-04T00:12:14;7.45;;;5.32;;
32323;SDS011;25666;44.350;9.222;2022-07-04T00:14:40;7.63;;;5.13;;
32323;SDS011;25666;44.350;9.222;2022-07-04T00:17:05;8.00;;;5.60;;
32323;SDS011;25666;44.350;9.222;2022-07-04T00:19:31;8.35;;;6.00;;
32323;SDS011;25666;44.350;9.222;2022-07-04T00:21:57;11.27;;;6.80;;
32323;SDS011;25666;44.350;9.222;2022-07-04T00:24:22;9.88;;;7.28;;
32323;SDS011;25666;44.350;9.222;2022-07-04T00:26:48;10.73;;;7.93;;
32323;SDS011;25666;44.350;9.222;2022-07-04T00:29:13;13.95;;;7.95;;
32323;SDS011;25666;44.350;9.222;2022-07-04T00:31:39;10.38;;;6.78;;
32323;SDS011;25666;44.350;9.222;2022-07-04T00:34:05;7.57;;;5.18;;
32323;SDS011;25666;44.350;9.222;2022-07-04T00:36:31;5.55;;;4.45;;
32323;SDS011;25666;44.350;9.222;2022-07-04T00:38:57;6.85;;;4.65;;
32323;SDS011;25666;44.350;9.222;2022-07-04T00:41:22;6.20;;;3.60;;
32323;SDS011;25666;44.350;9.222;2022-07-04T00:44:01;6.53;;;4.35;;
32323;SDS011;25666;44.350;9.222;2022-07-04T00:46:28;10.73;;;5.30;;
32323;SDS011;25666;44.350;9.222;2022-07-04T00:48:54;6.35;;;4.72;;
32323;SDS011;25666;44.350;9.222;2022-07-04T00:51:19;7.07;;;4.55;;
32323;SDS011;25666;44.350;9.222;2022-07-04T00:53:45;5.15;;;3.65;;
32323;SDS011;25666;44.350;9.222;2022-07-04T00:56:11;6.28;;;3.65;;
32323;SDS011;25666;44.350;9.222;2022-07-04T00:58:36;7.03;;;4.00;;
32323;SDS011;25666;44.350;9.222;2022-07-04T01:01:02;7.38;;;4.28;;
32323;SDS011;25666;44.350;9.222;2022-07-04T01:03:28;7.03;;;4.88;;
32323;SDS011;25666;44.350;9.222;2022-07-04T01:05:55;8.27;;;6.43;;
32323;SDS011;25666;44.350;9.222;2022-07-04T01:08:21;8.18;;;5.63;;
32323;SDS011;25666;44.350;9.222;2022-07-04T01:10:47;11.73;;;5.95;;
32323;SDS011;25666;44.350;9.222;2022-07-04T01:13:22;8.70;;;4.90;;
32323;SDS011;25666;44.350;9.222;2022-07-04T01:15:49;6.72;;;5.22;;
32323;SDS011;25666;44.350;9.222;2022-07-04T01:18:15;11.60;;;5.32;;
32323;SDS011;25666;44.350;9.222;2022-07-04T01:20:42;10.57;;;5.00;;
32323;SDS011;25666;44.350;9.222;2022-07-04T01:23:07;5.60;;;4.63;;
32323;SDS011;25666;44.350;9.222;2022-07-04T01:25:33;8.32;;;4.57;;
32323;SDS011;25666;44.350;9.222;2022-07-04T01:27:59;6.18;;;3.85;;
32323;SDS011;25666;44.350;9.222;2022-07-04T01:30:25;12.48;;;4.65;;
32323;SDS011;25666;44.350;9.222;2022-07-04T01:32:51;10.13;;;4.40;;
32323;SDS011;25666;44.350;9.222;2022-07-04T01:35:17;9.13;;;4.43;;
32323;SDS011;25666;44.350;9.222;2022-07-04T01:37:42;8.82;;;5.65;;
32323;SDS011;25666;44.350;9.222;2022-07-04T01:40:08;7.15;;;4.65;;
32323;SDS011;25666;44.350;9.222;2022-07-04T01:42:34;5.90;;;4.10;;
32323;SDS011;25666;44.350;9.222;2022-07-04T01:45:00;7.38;;;4.07;;
32323;SDS011;25666;44.350;9.222;2022-07-04T01:47:25;6.75;;;4.32;;
32323;SDS011;25666;44.350;9.222;2022-07-04T01:49:51;7.55;;;4.25;;
32323;SDS011;25666;44.350;9.222;2022-07-04T01:52:17;6.35;;;4.88;;
32323;SDS011;25666;44.350;9.222;2022-07-04T01:54:42;9.55;;;4.78;;
32323;SDS011;25666;44.350;9.222;2022-07-04T01:57:08;8.23;;;4.07;;
32323;SDS011;25666;44.350;9.222;2022-07-04T01:59:33;4.70;;;4.28;;
32323;SDS011;25666;44.350;9.222;2022-07-04T02:02:17;4.70;;;3.15;;
32323;SDS011;25666;44.350;9.222;2022-07-04T02:04:43;8.77;;;3.72;;
32323;SDS011;25666;44.350;9.222;2022-07-04T02:07:08;4.03;;;3.38;;
32323;SDS011;25666;44.350;9.222;2022-07-04T02:09:34;8.38;;;4.22;;
32323;SDS011;25666;44.350;9.222;2022-07-04T02:12:00;5.53;;;3.55;;
32323;SDS011;25666;44.350;9.222;2022-07-04T02:14:43;6.20;;;3.30;;
32323;SDS011;25666;44.350;9.222;2022-07-04T02:17:10;7.07;;;3.72;;
32323;SDS011;25666;44.350;9.222;2022-07-04T02:19:36;2.78;;;2.50;;
32323;SDS011;25666;44.350;9.222;2022-07-04T02:22:02;3.28;;;2.75;;
32323;SDS011;25666;44.350;9.222;2022-07-04T02:24:28;4.07;;;2.70;;
32323;SDS011;25666;44.350;9.222;2022-07-04T02:26:54;3.28;;;2.30;;
32323;SDS011;25666;44.350;9.222;2022-07-04T02:29:19;4.28;;;2.65;;
32323;SDS011;25666;44.350;9.222;2022-07-04T02:31:45;8.23;;;2.72;;
32323;SDS011;25666;44.350;9.222;2022-07-04T02:34:10;4.07;;;2.97;;
32323;SDS011;25666;44.350;9.222;2022-07-04T02:36:37;3.20;;;2.90;;
32323;SDS011;25666;44.350;9.222;2022-07-04T02:39:03;3.72;;;3.17;;
32323;SDS011;25666;44.350;9.222;2022-07-04T02:41:32;3.28;;;2.65;;
32323;SDS011;25666;44.350;9.222;2022-07-04T02:43:58;5.82;;;3.60;;
32323;SDS011;25666;44.350;9.222;2022-07-04T02:46:24;5.65;;;3.60;;
32323;SDS011;25666;44.350;9.222;2022-07-04T02:48:50;10.50;;;3.83;;
32323;SDS011;25666;44.350;9.222;2022-07-04T02:51:16;8.32;;;4.43;;
32323;SDS011;25666;44.350;9.222;2022-07-04T02:53:41;4.85;;;3.70;;
32323;SDS011;25666;44.350;9.222;2022-07-04T02:56:07;5.22;;;3.25;;
32323;SDS011;25666;44.350;9.222;2022-07-04T02:58:33;5.85;;;3.20;;
32323;SDS011;25666;44.350;9.222;2022-07-04T03:00:59;5.05;;;2.92;;
32323;SDS011;25666;44.350;9.222;2022-07-04T03:03:28;6.22;;;3.40;;
32323;SDS011;25666;44.350;9.222;2022-07-04T03:05:53;10.52;;;4.13;;
32323;SDS011;25666;44.350;9.222;2022-07-04T03:08:19;4.85;;;3.70;;
32323;SDS011;25666;44.350;9.222;2022-07-04T03:10:45;9.40;;;3.17;;
32323;SDS011;25666;44.350;9.222;2022-07-04T03:13:10;4.00;;;3.22;;
32323;SDS011;25666;44.350;9.222;2022-07-04T03:15:36;5.15;;;2.90;;
32323;SDS011;25666;44.350;9.222;2022-07-04T03:18:01;4.53;;;3.22;;
32323;SDS011;25666;44.350;9.222;2022-07-04T03:20:27;6.72;;;3.22;;
32323;SDS011;25666;44.350;9.222;2022-07-04T03:22:52;5.70;;;2.92;;
32323;SDS011;25666;44.350;9.222;2022-07-04T03:25:19;3.45;;;3.00;;
32323;SDS011;25666;44.350;9.222;2022-07-04T03:27:45;2.83;;;2.53;;
32323;SDS011;25666;44.350;9.222;2022-07-04T03:30:11;5.30;;;2.92;;
32323;SDS011;25666;44.350;9.222;2022-07-04T03:32:37;3.72;;;2.75;;
32323;SDS011;25666;44.350;9.222;2022-07-04T03:35:03;6.40;;;3.08;;
32323;SDS011;25666;44.350;9.222;2022-07-04T03:37:29;4.32;;;2.58;;
32323;SDS011;25666;44.350;9.222;2022-07-04T03:39:54;7.45;;;3.40;;
32323;SDS011;25666;44.350;9.222;2022-07-04T03:42:20;3.35;;;2.88;;
32323;SDS011;25666;44.350;9.222;2022-07-04T03:44:45;10.38;;;5.53;;
32323;SDS011;25666;44.350;9.222;2022-07-04T03:47:11;4.82;;;3.10;;
32323;SDS011;25666;44.350;9.222;2022-07-04T03:49:37;4.38;;;3.17;;
32323;SDS011;25666;44.350;9.222;2022-07-04T03:52:02;7.13;;;3.72;;
32323;SDS011;25666;44.350;9.222;2022-07-04T03:54:28;4.43;;;3.17;;
32323;SDS011;25666;44.350;9.222;2022-07-04T03:56:54;5.68;;;2.80;;
32323;SDS011;25666;44.350;9.222;2022-07-04T03:59:20;6.55;;;3.13;;
32323;SDS011;25666;44.350;9.222;2022-07-04T04:01:46;3.50;;;3.15;;
32323;SDS011;25666;44.350;9.222;2022-07-04T04:04:11;5.32;;;3.03;;
32323;SDS011;25666;44.350;9.222;2022-07-04T04:06:55;4.90;;;3.20;;
32323;SDS011;25666;44.350;9.222;2022-07-04T04:09:21;2.80;;;2.60;;
32323;SDS011;25666;44.350;9.222;2022-07-04T04:11:49;3.67;;;2.95;;
32323;SDS011;25666;44.350;9.222;2022-07-04T04:14:18;4.93;;;2.72;;
32323;SDS011;25666;44.350;9.222;2022-07-04T04:16:44;5.95;;;3.40;;
32323;SDS011;25666;44.350;9.222;2022-07-04T04:19:10;4.32;;;3.40;;
32323;SDS011;25666;44.350;9.222;2022-07-04T04:21:36;9.00;;;3.40;;
32323;SDS011;25666;44.350;9.222;2022-07-04T04:24:02;5.50;;;3.33;;
32323;SDS011;25666;44.350;9.222;2022-07-04T04:26:28;6.45;;;3.70;;
32323;SDS011;25666;44.350;9.222;2022-07-04T04:28:54;5.60;;;3.55;;
32323;SDS011;25666;44.350;9.222;2022-07-04T04:31:20;7.68;;;3.33;;
32323;SDS011;25666;44.350;9.222;2022-07-04T04:33:46;5.90;;;3.50;;
32323;SDS011;25666;44.350;9.222;2022-07-04T04:36:11;5.25;;;3.58;;
32323;SDS011;25666;44.350;9.222;2022-07-04T04:38:37;5.00;;;3.78;;
32323;SDS011;25666;44.350;9.222;2022-07-04T04:41:02;5.00;;;3.67;;
32323;SDS011;25666;44.350;9.222;2022-07-04T04:43:28;5.22;;;3.67;;
32323;SDS011;25666;44.350;9.222;2022-07-04T04:45:54;4.68;;;3.50;;
32323;SDS011;25666;44.350;9.222;2022-07-04T04:48:20;6.97;;;3.40;;
32323;SDS011;25666;44.350;9.222;2022-07-04T04:50:45;4.20;;;3.53;;
32323;SDS011;25666;44.350;9.222;2022-07-04T04:53:11;7.20;;;3.58;;
32323;SDS011;25666;44.350;9.222;2022-07-04T04:55:37;5.95;;;4.05;;
32323;SDS011;25666;44.350;9.222;2022-07-04T04:58:03;6.60;;;3.33;;
32323;SDS011;25666;44.350;9.222;2022-07-04T05:00:29;11.48;;;3.88;;
32323;SDS011;25666;44.350;9.222;2022-07-04T05:02:54;7.03;;;3.60;;
32323;SDS011;25666;44.350;9.222;2022-07-04T05:05:20;5.45;;;3.95;;
32323;SDS011;25666;44.350;9.222;2022-07-04T05:07:45;6.10;;;3.95;;
32323;SDS011;25666;44.350;9.222;2022-07-04T05:10:11;4.10;;;3.50;;
32323;SDS011;25666;44.350;9.222;2022-07-04T05:12:36;6.43;;;4.28;;
32323;SDS011;25666;44.350;9.222;2022-07-04T05:15:02;8.88;;;4.28;;
32323;SDS011;25666;44.350;9.222;2022-07-04T05:17:28;6.45;;;3.55;;
32323;SDS011;25666;44.350;9.222;2022-07-04T05:19:54;5.43;;;4.30;;
32323;SDS011;25666;44.350;9.222;2022-07-04T05:22:19;8.20;;;5.32;;
32323;SDS011;25666;44.350;9.222;2022-07-04T05:24:45;4.53;;;3.15;;
32323;SDS011;25666;44.350;9.222;2022-07-04T05:27:10;5.60;;;3.72;;
32323;SDS011;25666;44.350;9.222;2022-07-04T05:29:36;7.93;;;3.55;;
32323;SDS011;25666;44.350;9.222;2022-07-04T05:32:03;9.57;;;4.57;;
32323;SDS011;25666;44.350;9.222;2022-07-04T05:34:29;8.63;;;3.97;;
32323;SDS011;25666;44.350;9.222;2022-07-04T05:36:55;7.13;;;3.70;;
32323;SDS011;25666;44.350;9.222;2022-07-04T05:39:20;6.78;;;3.33;;
32323;SDS011;25666;44.350;9.222;2022-07-04T05:41:46;5.45;;;3.22;;
32323;SDS011;25666;44.350;9.222;2022-07-04T05:44:11;7.45;;;3.20;;
32323;SDS011;25666;44.350;9.222;2022-07-04T05:46:37;8.98;;;4.70;;
32323;SDS011;25666;44.350;9.222;2022-07-04T05:49:02;13.57;;;4.25;;
32323;SDS011;25666;44.350;9.222;2022-07-04T05:51:28;7.45;;;4.43;;
32323;SDS011;25666;44.350;9.222;2022-07-04T05:53:54;12.18;;;5.38;;
32323;SDS011;25666;44.350;9.222;2022-07-04T05:56:19;11.18;;;4.65;;
32323;SDS011;25666;44.350;9.222;2022-07-04T05:58:45;8.65;;;4.00;;
32323;SDS011;25666;44.350;9.222;2022-07-04T06:01:11;7.75;;;4.47;;
32323;SDS011;25666;44.350;9.222;2022-07-04T06:03:36;13.23;;;5.90;;
32323;SDS011;25666;44.350;9.222;2022-07-04T06:06:03;16.30;;;6.95;;
32323;SDS011;25666;44.350;9.222;2022-07-04T06:08:29;8.50;;;4.13;;
32323;SDS011;25666;44.350;9.222;2022-07-04T06:10:54;8.02;;;3.63;;
32323;SDS011;25666;44.350;9.222;2022-07-04T06:13:20;6.93;;;4.15;;
32323;SDS011;25666;44.350;9.222;2022-07-04T06:15:46;6.25;;;4.07;;
32323;SDS011;25666;44.350;9.222;2022-07-04T06:18:12;9.57;;;3.55;;
32323;SDS011;25666;44.350;9.222;2022-07-04T06:20:37;11.63;;;4.13;;
32323;SDS011;25666;44.350;9.222;2022-07-04T06:23:05;6.45;;;4.30;;
32323;SDS011;25666;44.350;9.222;2022-07-04T06:25:31;7.72;;;4.43;;
32323;SDS011;25666;44.350;9.222;2022-07-04T06:27:57;8.27;;;3.85;;
32323;SDS011;25666;44.350;9.222;2022-07-04T06:30:23;19.40;;;4.40;;
32323;SDS011;25666;44.350;9.222;2022-07-04T06:32:50;8.80;;;4.60;;
32323;SDS011;25666;44.350;9.222;2022-07-04T06:35:19;10.75;;;4.57;;
32323;SDS011;25666;44.350;9.222;2022-07-04T06:38:10;7.40;;;3.40;;
32323;SDS011;25666;44.350;9.222;2022-07-04T06:40:40;5.80;;;3.72;;
32323;SDS011;25666;44.350;9.222;2022-07-04T06:43:07;13.38;;;4.65;;
32323;SDS011;25666;44.350;9.222;2022-07-04T06:45:33;7.07;;;3.78;;
32323;SDS011;25666;44.350;9.222;2022-07-04T06:47:59;11.30;;;4.43;;
32323;SDS011;25666;44.350;9.222;2022-07-04T06:50:25;8.25;;;4.65;;
32323;SDS011;25666;44.350;9.222;2022-07-04T06:52:51;6.72;;;4.15;;
32323;SDS011;25666;44.350;9.222;2022-07-04T06:55:35;13.75;;;4.57;;
32323;SDS011;25666;44.350;9.222;2022-07-04T06:58:02;8.07;;;3.83;;
32323;SDS011;25666;44.350;9.222;2022-07-04T07:00:29;7.72;;;3.83;;
32323;SDS011;25666;44.350;9.222;2022-07-04T07:02:58;11.18;;;4.40;;
32323;SDS011;25666;44.350;9.222;2022-07-04T07:05:25;8.63;;;4.57;;
32323;SDS011;25666;44.350;9.222;2022-07-04T07:07:51;7.43;;;3.65;;
32323;SDS011;25666;44.350;9.222;2022-07-04T07:10:17;8.95;;;3.83;;
32323;SDS011;25666;44.350;9.222;2022-07-04T07:12:43;5.97;;;4.03;;
32323;SDS011;25666;44.350;9.222;2022-07-04T07:15:08;12.43;;;4.40;;
32323;SDS011;25666;44.350;9.222;2022-07-04T07:17:34;9.35;;;3.80;;
32323;SDS011;25666;44.350;9.222;2022-07-04T07:20:00;7.43;;;4.13;;
32323;SDS011;25666;44.350;9.222;2022-07-04T07:22:25;7.85;;;3.50;;
32323;SDS011;25666;44.350;9.222;2022-07-04T07:24:51;12.13;;;4.43;;
32323;SDS011;25666;44.350;9.222;2022-07-04T07:27:17;9.20;;;4.47;;
32323;SDS011;25666;44.350;9.222;2022-07-04T07:29:43;7.78;;;3.72;;
32323;SDS011;25666;44.350;9.222;2022-07-04T07:32:08;7.50;;;3.85;;
32323;SDS011;25666;44.350;9.222;2022-07-04T07:34:34;11.68;;;3.75;;
32323;SDS011;25666;44.350;9.222;2022-07-04T07:37:00;7.63;;;3.67;;
32323;SDS011;25666;44.350;9.222;2022-07-04T07:39:26;5.28;;;3.55;;
32323;SDS011;25666;44.350;9.222;2022-07-04T07:41:51;8.82;;;3.90;;
32323;SDS011;25666;44.350;9.222;2022-07-04T07:44:17;4.20;;;3.40;;
32323;SDS011;25666;44.350;9.222;2022-07-04T07:46:43;6.93;;;3.65;;
32323;SDS011;25666;44.350;9.222;2022-07-04T07:49:08;4.38;;;3.17;;
32323;SDS011;25666;44.350;9.222;2022-07-04T07:51:34;5.93;;;3.38;;
32323;SDS011;25666;44.350;9.222;2022-07-04T07:54:00;4.80;;;3.28;;
32323;SDS011;25666;44.350;9.222;2022-07-04T07:56:25;5.07;;;3.03;;
32323;SDS011;25666;44.350;9.222;2022-07-04T07:58:51;5.90;;;3.15;;
32323;SDS011;25666;44.350;9.222;2022-07-04T08:01:17;16.40;;;10.43;;
32323;SDS011;25666;44.350;9.222;2022-07-04T08:03:43;6.10;;;3.65;;
32323;SDS011;25666;44.350;9.222;2022-07-04T08:06:27;8.50;;;4.50;;
32323;SDS011;25666;44.350;9.222;2022-07-04T08:08:53;13.98;;;3.22;;
32323;SDS011;25666;44.350;9.222;2022-07-04T08:11:19;8.65;;;3.83;;
32323;SDS011;25666;44.350;9.222;2022-07-04T08:13:45;4.78;;;3.60;;
32323;SDS011;25666;44.350;9.222;2022-07-04T08:16:11;5.82;;;3.47;;
32323;SDS011;25666;44.350;9.222;2022-07-04T08:18:37;7.75;;;4.78;;
32323;SDS011;25666;44.350;9.222;2022-07-04T08:21:03;9.32;;;3.92;;
32323;SDS011;25666;44.350;9.222;2022-07-04T08:23:29;11.55;;;3.95;;
32323;SDS011;25666;44.350;9.222;2022-07-04T08:25:57;10.10;;;3.70;;
32323;SDS011;25666;44.350;9.222;2022-07-04T08:28:25;5.25;;;4.00;;
32323;SDS011;25666;44.350;9.222;2022-07-04T08:30:51;6.28;;;3.88;;
32323;SDS011;25666;44.350;9.222;2022-07-04T08:33:16;10.13;;;4.30;;
32323;SDS011;25666;44.350;9.222;2022-07-04T08:35:42;7.97;;;3.40;;
32323;SDS011;25666;44.350;9.222;2022-07-04T08:38:08;6.13;;;3.67;;
32323;SDS011;25666;44.350;9.222;2022-07-04T08:40:33;6.72;;;4.15;;
32323;SDS011;25666;44.350;9.222;2022-07-04T08:43:00;13.65;;;4.25;;
32323;SDS011;25666;44.350;9.222;2022-07-04T08:45:27;7.72;;;3.75;;
32323;SDS011;25666;44.350;9.222;2022-07-04T08:48:02;8.38;;;4.43;;
32323;SDS011;25666;44.350;9.222;2022-07-04T08:50:33;6.65;;;3.60;;
32323;SDS011;25666;44.350;9.222;2022-07-04T08:53:15;11.80;;;4.45;;
32323;SDS011;25666;44.350;9.222;2022-07-04T08:55:43;11.63;;;3.95;;
32323;SDS011;25666;44.350;9.222;2022-07-04T08:58:29;7.97;;;3.40;;
32323;SDS011;25666;44.350;9.222;2022-07-04T09:00:55;5.55;;;3.45;;
32323;SDS011;25666;44.350;9.222;2022-07-04T09:03:23;5.75;;;3.70;;
32323;SDS011;25666;44.350;9.222;2022-07-04T09:05:48;6.75;;;3.40;;
32323;SDS011;25666;44.350;9.222;2022-07-04T09:08:14;5.53;;;4.30;;
32323;SDS011;25666;44.350;9.222;2022-07-04T09:10:40;6.20;;;3.88;;
32323;SDS011;25666;44.350;9.222;2022-07-04T09:13:06;8.75;;;3.63;;
32323;SDS011;25666;44.350;9.222;2022-07-04T09:15:33;10.57;;;3.97;;
32323;SDS011;25666;44.350;9.222;2022-07-04T09:17:59;8.70;;;4.32;;
32323;SDS011;25666;44.350;9.222;2022-07-04T09:20:26;7.47;;;3.97;;
32323;SDS011;25666;44.350;9.222;2022-07-04T09:22:53;8.38;;;4.68;;
32323;SDS011;25666;44.350;9.222;2022-07-04T09:25:20;4.95;;;4.00;;
32323;SDS011;25666;44.350;9.222;2022-07-04T09:27:51;5.50;;;4.68;;
32323;SDS011;25666;44.350;9.222;2022-07-04T09:30:22;9.73;;;4.38;;
32323;SDS011;25666;44.350;9.222;2022-07-04T09:32:51;6.00;;;4.38;;
32323;SDS011;25666;44.350;9.222;2022-07-04T09:35:23;9.82;;;4.43;;
32323;SDS011;25666;44.350;9.222;2022-07-04T09:40:21;11.15;;;4.78;;
32323;SDS011;25666;44.350;9.222;2022-07-04T09:42:51;4.78;;;3.65;;
32323;SDS011;25666;44.350;9.222;2022-07-04T09:45:18;4.35;;;3.95;;
32323;SDS011;25666;44.350;9.222;2022-07-04T09:47:46;4.05;;;3.47;;
32323;SDS011;25666;44.350;9.222;2022-07-04T09:50:17;6.38;;;3.50;;
32323;SDS011;25666;44.350;9.222;2022-07-04T09:52:54;6.32;;;2.78;;
32323;SDS011;25666;44.350;9.222;2022-07-04T09:55:34;6.40;;;3.40;;
32323;SDS011;25666;44.350;9.222;2022-07-04T09:58:04;5.50;;;3.20;;
32323;SDS011;25666;44.350;9.222;2022-07-04T10:00:34;5.68;;;3.03;;
32323;SDS011;25666;44.350;9.222;2022-07-04T10:05:47;5.72;;;3.83;;
32323;SDS011;25666;44.350;9.222;2022-07-04T10:08:26;5.93;;;3.83;;
32323;SDS011;25666;44.350;9.222;2022-07-04T10:10:56;4.07;;;3.70;;
32323;SDS011;25666;44.350;9.222;2022-07-04T10:13:22;9.35;;;4.53;;
32323;SDS011;25666;44.350;9.222;2022-07-04T10:15:48;9.10;;;3.95;;
32323;SDS011;25666;44.350;9.222;2022-07-04T10:18:33;5.72;;;4.03;;
32323;SDS011;25666;44.350;9.222;2022-07-04T10:20:59;4.68;;;3.45;;
32323;SDS011;25666;44.350;9.222;2022-07-04T10:23:26;15.05;;;4.53;;
32323;SDS011;25666;44.350;9.222;2022-07-04T10:25:56;7.95;;;4.65;;
32323;SDS011;25666;44.350;9.222;2022-07-04T10:28:23;6.22;;;3.55;;
32323;SDS011;25666;44.350;9.222;2022-07-04T10:30:53;5.63;;;4.25;;
32323;SDS011;25666;44.350;9.222;2022-07-04T10:33:27;7.97;;;3.67;;
32323;SDS011;25666;44.350;9.222;2022-07-04T10:35:55;6.18;;;3.78;;
32323;SDS011;25666;44.350;9.222;2022-07-04T10:38:28;5.10;;;3.25;;
32323;SDS011;25666;44.350;9.222;2022-07-04T10:41:03;5.72;;;2.88;;
32323;SDS011;25666;44.350;9.222;2022-07-04T10:48:49;3.25;;;2.67;;
32323;SDS011;25666;44.350;9.222;2022-07-04T10:51:15;3.75;;;3.00;;
32323;SDS011;25666;44.350;9.222;2022-07-04T10:54:00;4.80;;;2.42;;
32323;SDS011;25666;44.350;9.222;2022-07-04T10:56:33;3.38;;;3.08;;
32323;SDS011;25666;44.350;9.222;2022-07-04T10:59:02;3.00;;;2.50;;
32323;SDS011;25666;44.350;9.222;2022-07-04T11:01:33;3.50;;;2.85;;
32323;SDS011;25666;44.350;9.222;2022-07-04T11:03:59;5.50;;;3.13;;
32323;SDS011;25666;44.350;9.222;2022-07-04T11:09:16;8.75;;;3.28;;
32323;SDS011;25666;44.350;9.222;2022-07-04T11:16:57;7.38;;;3.47;;
32323;SDS011;25666;44.350;9.222;2022-07-04T11:19:22;5.80;;;2.97;;
32323;SDS011;25666;44.350;9.222;2022-07-04T11:21:48;4.38;;;3.05;;
32323;SDS011;25666;44.350;9.222;2022-07-04T11:24:14;6.88;;;2.90;;
32323;SDS011;25666;44.350;9.222;2022-07-04T11:26:39;5.90;;;3.40;;
32323;SDS011;25666;44.350;9.222;2022-07-04T11:29:05;9.85;;;3.15;;
32323;SDS011;25666;44.350;9.222;2022-07-04T11:31:34;3.50;;;3.13;;
32323;SDS011;25666;44.350;9.222;2022-07-04T11:34:04;4.50;;;3.25;;
32323;SDS011;25666;44.350;9.222;2022-07-04T11:36:30;4.68;;;3.47;;
32323;SDS011;25666;44.350;9.222;2022-07-04T11:38:56;3.60;;;3.30;;
32323;SDS011;25666;44.350;9.222;2022-07-04T11:41:25;3.92;;;3.47;;
32323;SDS011;25666;44.350;9.222;2022-07-04T11:44:14;3.97;;;3.40;;
32323;SDS011;25666;44.350;9.222;2022-07-04T11:47:04;6.15;;;3.83;;
32323;SDS011;25666;44.350;9.222;2022-07-04T11:49:33;4.60;;;4.13;;
32323;SDS011;25666;44.350;9.222;2022-07-04T11:51:59;6.65;;;3.70;;
32323;SDS011;25666;44.350;9.222;2022-07-04T11:54:25;6.90;;;3.70;;
32323;SDS011;25666;44.350;9.222;2022-07-04T11:56:50;4.95;;;3.38;;
32323;SDS011;25666;44.350;9.222;2022-07-04T11:59:16;4.85;;;2.65;;
32323;SDS011;25666;44.350;9.222;2022-07-04T12:01:42;4.35;;;3.05;;
32323;SDS011;25666;44.350;9.222;2022-07-04T12:06:37;4.20;;;2.70;;
32323;SDS011;25666;44.350;9.222;2022-07-04T12:09:04;5.20;;;3.00;;
32323;SDS011;25666;44.350;9.222;2022-07-04T12:14:22;8.18;;;3.95;;
32323;SDS011;25666;44.350;9.222;2022-07-04T12:16:48;4.00;;;2.65;;
32323;SDS011;25666;44.350;9.222;2022-07-04T12:19:14;2.85;;;2.47;;
32323;SDS011;25666;44.350;9.222;2022-07-04T12:21:41;3.85;;;2.50;;
32323;SDS011;25666;44.350;9.222;2022-07-04T12:24:08;4.68;;;2.88;;
32323;SDS011;25666;44.350;9.222;2022-07-04T12:26:33;5.03;;;3.38;;
32323;SDS011;25666;44.350;9.222;2022-07-04T12:29:00;3.63;;;2.67;;
32323;SDS011;25666;44.350;9.222;2022-07-04T12:31:42;4.13;;;2.97;;
32323;SDS011;25666;44.350;9.222;2022-07-04T12:34:15;5.25;;;2.40;;
32323;SDS011;25666;44.350;9.222;2022-07-04T12:36:48;3.17;;;2.75;;
32323;SDS011;25666;44.350;9.222;2022-07-04T12:39:30;3.15;;;2.95;;
32323;SDS011;25666;44.350;9.222;2022-07-04T12:42:10;4.68;;;3.08;;
32323;SDS011;25666;44.350;9.222;2022-07-04T12:44:43;2.75;;;2.30;;
32323;SDS011;25666;44.350;9.222;2022-07-04T12:47:10;3.50;;;2.63;;
32323;SDS011;25666;44.350;9.222;2022-07-04T12:49:37;2.58;;;2.38;;
32323;SDS011;25666;44.350;9.222;2022-07-04T12:52:14;4.97;;;3.25;;
32323;SDS011;25666;44.350;9.222;2022-07-04T12:54:41;4.05;;;2.72;;
32323;SDS011;25666;44.350;9.222;2022-07-04T12:57:14;11.73;;;2.70;;
32323;SDS011;25666;44.350;9.222;2022-07-04T12:59:41;2.92;;;2.72;;
32323;SDS011;25666;44.350;9.222;2022-07-04T13:02:08;2.85;;;2.65;;
32323;SDS011;25666;44.350;9.222;2022-07-04T13:04:34;2.55;;;2.20;;
32323;SDS011;25666;44.350;9.222;2022-07-04T13:07:11;2.50;;;2.30;;
32323;SDS011;25666;44.350;9.222;2022-07-04T13:09:40;7.03;;;2.50;;
32323;SDS011;25666;44.350;9.222;2022-07-04T13:12:06;4.35;;;2.63;;
32323;SDS011;25666;44.350;9.222;2022-07-04T13:14:50;3.03;;;2.60;;
32323;SDS011;25666;44.350;9.222;2022-07-04T13:17:17;3.38;;;2.83;;
32323;SDS011;25666;44.350;9.222;2022-07-04T13:19:43;2.33;;;2.10;;
32323;SDS011;25666;44.350;9.222;2022-07-04T13:22:08;2.47;;;2.28;;
32323;SDS011;25666;44.350;9.222;2022-07-04T13:24:34;3.10;;;2.63;;
32323;SDS011;25666;44.350;9.222;2022-07-04T13:26:59;3.13;;;2.67;;
32323;SDS011;25666;44.350;9.222;2022-07-04T13:29:25;3.22;;;2.50;;
32323;SDS011;25666;44.350;9.222;2022-07-04T13:31:51;3.08;;;2.65;;
32323;SDS011;25666;44.350;9.222;2022-07-04T13:34:16;3.33;;;2.90;;
32323;SDS011;25666;44.350;9.222;2022-07-04T13:36:43;5.30;;;2.92;;
32323;SDS011;25666;44.350;9.222;2022-07-04T13:39:10;4.05;;;3.20;;
32323;SDS011;25666;44.350;9.222;2022-07-04T13:41:36;3.10;;;2.20;;
32323;SDS011;25666;44.350;9.222;2022-07-04T13:44:02;3.20;;;2.90;;
32323;SDS011;25666;44.350;9.222;2022-07-04T13:46:29;3.72;;;3.42;;
32323;SDS011;25666;44.350;9.222;2022-07-04T13:48:54;9.00;;;2.97;;
32323;SDS011;25666;44.350;9.222;2022-07-04T13:51:20;4.90;;;3.10;;
32323;SDS011;25666;44.350;9.222;2022-07-04T13:53:45;3.45;;;2.83;;
32323;SDS011;25666;44.350;9.222;2022-07-04T13:56:12;5.22;;;3.35;;
32323;SDS011;25666;44.350;9.222;2022-07-04T13:58:42;4.18;;;2.90;;
32323;SDS011;25666;44.350;9.222;2022-07-04T14:01:09;3.33;;;3.03;;
32323;SDS011;25666;44.350;9.222;2022-07-04T14:03:34;7.65;;;3.50;;
32323;SDS011;25666;44.350;9.222;2022-07-04T14:06:00;3.03;;;2.72;;
32323;SDS011;25666;44.350;9.222;2022-07-04T14:08:25;4.57;;;2.97;;
32323;SDS011;25666;44.350;9.222;2022-07-04T14:10:51;3.33;;;2.70;;
32323;SDS011;25666;44.350;9.222;2022-07-04T14:13:16;2.55;;;2.35;;
32323;SDS011;25666;44.350;9.222;2022-07-04T14:15:42;3.63;;;2.75;;
32323;SDS011;25666;44.350;9.222;2022-07-04T14:18:08;3.42;;;2.65;;
32323;SDS011;25666;44.350;9.222;2022-07-04T14:20:39;2.70;;;2.50;;
32323;SDS011;25666;44.350;9.222;2022-07-04T14:23:05;7.88;;;2.40;;
32323;SDS011;25666;44.350;9.222;2022-07-04T14:25:31;2.42;;;2.13;;
32323;SDS011;25666;44.350;9.222;2022-07-04T14:27:56;2.90;;;2.70;;
32323;SDS011;25666;44.350;9.222;2022-07-04T14:30:22;2.92;;;2.45;;
32323;SDS011;25666;44.350;9.222;2022-07-04T14:32:47;2.80;;;2.55;;
32323;SDS011;25666;44.350;9.222;2022-07-04T14:35:13;4.30;;;3.05;;
32323;SDS011;25666;44.350;9.222;2022-07-04T14:37:39;5.32;;;2.10;;
32323;SDS011;25666;44.350;9.222;2022-07-04T14:40:05;2.90;;;2.60;;
32323;SDS011;25666;44.350;9.222;2022-07-04T14:42:30;2.42;;;2.22;;
32323;SDS011;25666;44.350;9.222;2022-07-04T14:44:56;2.17;;;1.98;;
32323;SDS011;25666;44.350;9.222;2022-07-04T14:47:22;4.20;;;2.67;;
32323;SDS011;25666;44.350;9.222;2022-07-04T14:49:47;2.40;;;2.20;;
32323;SDS011;25666;44.350;9.222;2022-07-04T14:52:13;4.50;;;2.00;;
32323;SDS011;25666;44.350;9.222;2022-07-04T14:54:38;11.27;;;2.03;;
32323;SDS011;25666;44.350;9.222;2022-07-04T14:57:04;4.03;;;2.25;;
32323;SDS011;25666;44.350;9.222;2022-07-04T14:59:32;4.70;;;2.45;;
32323;SDS011;25666;44.350;9.222;2022-07-04T15:02:01;2.92;;;1.98;;
32323;SDS011;25666;44.350;9.222;2022-07-04T15:04:28;5.43;;;1.70;;
32323;SDS011;25666;44.350;9.222;2022-07-04T15:06:53;1.88;;;1.48;;
32323;SDS011;25666;44.350;9.222;2022-07-04T15:09:20;4.93;;;1.73;;